Weather at George Best Belfast City Airport

Public forecast

Using degrees Celsius for public forecast. Weather courtesy of forecast.io.

Current aviation weather report (METAR) for George Best Belfast City Airport

Retrieved 2022/08/19 10:20 UTC (15 minutes ago):

EGAC 191020Z AUTO 23013KT 200V270 9999 SCT030 BKN036 OVC046 17/10 Q1010

Aviation forecast (TAF) for George Best Belfast City Airport

Forecast is more than 12 hours old.

Retrieved 2021/12/01 18:06 UTC (9 months ago):

TAF TAF EGAC 010102Z 3018/0103 CNL